Tiempo atmosférico en la estación meteorológica de Monesterio, Badajoz (750 m.)



Fecha
DESCASC
Temp. máxima en grados centígrados (hora)
DESCASC
Temp. mínima en grados centígrados (hora)
DESCASC
Temp. media en grados centígrados
DESCASC
Racha de viento máxima en m/sg (hora)
DESCASC
Velocidad máxima media en intervalos de 10 minutos(hora)
DESCASC
Precipitaciones diarias en mm
DESCASC
Precipitaciones de 00:00 a 06:00 en mm
DESCASC
Precipitaciones de 06:00 a 12:00 en mm
DESCASC
Precipitaciones de 12:00 a 18:00 en mm
DESCASC
Precipitaciones de 18:00 a 24:00 en mm
DESCASC
20-09-2020 22.4 (17:40) 13.2 (08:30) 17.8 6.67 (14:40) 3.61 (16:20) 0 0 0 0 0
19-09-2020 22.1 (16:10) 13.6 (07:50) 17.9 9.72 (00:50) 5 (01:00) 0.4 0.4 0 0 0
18-09-2020 17.8 (17:50) 14 (06:50) 15.9 15.83 (19:20) 8.33 (19:20) 10 0.2 1.8 7 1
17-09-2020 22 (17:00) 16.8 (00:00) 19.4 13.89 (18:00) 7.78 (11:30) 0 0 0 0 0
16-09-2020 25.9 (15:40) 14.6 (00:00) 20.3 8.33 (23:20) 4.44 (23:59) 0 0 0 0 0
15-09-2020 27.4 (17:50) 14.4 (00:00) 20.9 10 (16:30) 4.17 (11:40) 0 0 0 0 0
14-09-2020 28.5 (14:50) 18.9 (00:00) 23.7 11.39 (15:40) 5.83 (13:30) 0 0 0 0 0
13-09-2020 30.5 (15:40) 20.6 (00:00) 25.6 11.67 (15:00) 5.83 (11:30) 0 0 0 0 0
12-09-2020 31.9 (17:00) 18.6 (00:00) 25.3 8.89 (11:50) 5.28 (13:00) 0 0 0 0 0
11-09-2020 31.3 (15:10) 17.7 (00:00) 24.5 7.5 (18:40) 3.89 (14:00) 0 0 0 0 0
10-09-2020 30.6 (16:30) 17.6 (00:00) 24.1 6.11 (15:30) 3.33 (16:30) 0 0 0 0 0
09-09-2020 29 (17:30) 15.6 (00:00) 22.3 6.94 (00:40) 4.44 (00:40) 0 0 0 0 0
08-09-2020 30 (16:20) 18.3 (00:00) 24.1 6.67 (21:00) 4.17 (05:10) 0 0 0 0 0
07-09-2020 32.7 (16:40) 21.3 (05:40) 27 8.61 (15:10) 4.17 (18:40) 0 0 0 0 0
06-09-2020 33.1 (18:20) 17.6 (00:00) 25.3 6.67 (15:30) 3.61 (11:20) 0 0 0 0 0
05-09-2020 33.1 (17:30) 19 (00:00) 26 6.39 (11:50) 3.61 (11:20) 0 0 0 0 0
04-09-2020 32 (17:20) 18.7 (00:00) 25.4 9.17 (06:10) 5.28 (06:00) 0 0 0 0 0
03-09-2020 31.5 (18:00) 18.4 (00:00) 24.9 8.61 (13:40) 4.72 (10:10) 0 0 0 0 0
02-09-2020 30.6 (17:40) 16.9 (00:00) 23.8 7.22 (16:30) 3.61 (00:20) 0 0 0 0 0
01-09-2020 29.8 (17:20) 17.2 (00:00) 23.5 8.06 (17:30) 4.17 (16:40) 0 0 0 0 0
31-08-2020 29 (17:10) 13.4 (00:00) 21.2 6.67 (12:00) 3.89 (11:00) 0 0 0 0 0
30-08-2020 26.1 (16:50) 11.8 (00:00) 19 7.5 (18:20) 3.61 (18:20) 0 0 0 0 0
29-08-2020 23.1 (17:20) 10.3 (00:00) 16.7 12.5 (12:30) 6.11 (12:30) 0 0 0 0 0
28-08-2020 29 (17:30) 16.2 (00:00) 22.6 10.83 (16:40) 5.56 (18:30) 0 0 0 0 0
27-08-2020 34.6 (15:30) 21.8 (00:00) 28.2 9.44 (16:50) 5 (23:30) 0 0 0 0 0
26-08-2020 36.7 (17:30) 20.7 (00:00) 28.7 7.5 (18:30) 4.17 (18:10) 0 0 0 0 0
25-08-2020 35.7 (17:40) 19.3 (00:00) 27.5 5.56 (14:10) 3.61 (01:50) 0 0 0 0 0
24-08-2020 34.6 (17:50) 19 (00:00) 26.8 8.89 (00:40) 4.72 (00:40) 0 0 0 0 0
23-08-2020 31.3 (15:50) 17.7 (00:00) 24.5 8.61 (17:00) 3.89 (16:10) 0 0 0 0 0

Gráficas

Temp. máximas Temp. mínimas Temp. medias Precipitaciones Rachas de viento máximas Velocidades máximas media en intervalos de 10 minutos

Datos horarios

Fecha y hora oficial Temperatura (ºC) Velocidad del viento (km/h) Dirección del viento Racha (km/h) Dirección de racha Precipitación (mm) Presión (hPa) Tendencia (hPa) Humedad (%)
2020-09-21 23:00:00 17.5 7 Noroeste 12 Oeste 0 -- -- 56
2020-09-21 22:00:00 17.8 7 Oeste 10 Oeste 0 -- -- 53
2020-09-21 21:00:00 19.6 8 Noroeste 13 Oeste 0 -- -- 48
2020-09-21 20:00:00 21.5 7 Noroeste 19 Noroeste 0 -- -- 43
2020-09-21 19:00:00 23.2 12 Noroeste 22 Noroeste 0 -- -- 40
2020-09-21 18:00:00 24.3 9 Noroeste 22 Oeste 0 -- -- 40
2020-09-21 17:00:00 24.5 11 Noroeste 20 Noroeste 0 -- -- 40
2020-09-21 16:00:00 24.2 8 Noroeste 21 Noroeste 0 -- -- 41
2020-09-21 15:00:00 23 6 Noroeste 23 Noroeste 0 -- -- 46
2020-09-21 14:00:00 21.6 8 Norte 22 Noroeste 0 -- -- 53
2020-09-21 13:00:00 20.2 8 Norte 17 Norte 0 -- -- 61
2020-09-21 12:00:00 19 9 Norte 18 Norte 0 -- -- 62
2020-09-21 11:00:00 17 7 Norte 11 Norte 0 -- -- 73
2020-09-21 10:00:00 15.4 4 Noroeste 9 Oeste 0 -- -- 80
2020-09-21 09:00:00 14.6 4 Oeste 9 Oeste 0 -- -- 82
2020-09-21 08:00:00 14.2 5 Oeste 8 Oeste 0 -- -- 86
2020-09-21 07:00:00 14 5 Oeste 8 Oeste 0 -- -- 87
2020-09-21 06:00:00 13.8 7 Oeste 10 Oeste 0 -- -- 89
2020-09-21 05:00:00 13.8 5 Oeste 9 Oeste 0 -- -- 89
2020-09-21 04:00:00 14.3 5 Noroeste 13 Oeste 0 -- -- 85
2020-09-21 03:00:00 14.8 6 Noroeste 9 Noroeste 0 -- -- 83
2020-09-21 02:00:00 15.4 6 Oeste 13 Oeste 0 -- -- 82
2020-09-21 01:00:00 15.9 7 Oeste 13 Oeste 0 -- -- 81
2020-09-21 00:00:00 16.7 10 Oeste 16 Oeste 0 -- -- 78
2020-09-20 23:00:00 16.9 7 Oeste 13 Oeste 0 -- -- 76
2020-09-20 22:00:00 17.5 7 Oeste 13 Noroeste 0 -- -- 73
2020-09-20 21:00:00 18.3 6 Oeste 12 Oeste 0 -- -- 68
2020-09-20 20:00:00 19.9 5 Noroeste 14 Noroeste 0 -- -- 63
2020-09-20 19:00:00 21.1 10 Noroeste 20 Noroeste 0 -- -- 55
2020-09-20 18:00:00 21.7 10 Noroeste 23 Noroeste 0 -- -- 56
2020-09-20 17:00:00 21.8 12 Noroeste 24 Oeste 0 -- -- 59
2020-09-20 16:00:00 21.7 11 Noroeste 21 Noroeste 0 -- -- 56
2020-09-20 15:00:00 21.3 10 Oeste 24 Oeste 0 -- -- 59
2020-09-20 14:00:00 20.3 12 Oeste 23 Oeste 0 -- -- 66
2020-09-20 13:00:00 20.1 7 Noroeste 18 Oeste 0 -- -- 66
2020-09-20 12:00:00 19 6 Oeste 17 Sudoeste 0 -- -- 71
2020-09-20 11:00:00 17.8 8 Oeste 15 Oeste 0 -- -- 76
2020-09-20 10:00:00 15.5 10 Sudoeste 18 Oeste 0 -- -- 86
2020-09-20 09:00:00 13.5 3 Oeste 10 Oeste 0 -- -- 95
2020-09-20 08:00:00 13.3 6 Oeste 13 Oeste 0 -- -- 94
2020-09-20 07:00:00 14 8 Oeste 17 Oeste 0 -- -- 94
2020-09-20 06:00:00 13.8 6 Oeste 18 Oeste 0 -- -- 95
2020-09-20 05:00:00 13.8 11 Oeste 22 Oeste 0 -- -- 95
2020-09-20 04:00:00 13.8 10 Oeste 21 Oeste 0 -- -- 92
2020-09-20 03:00:00 14 10 Sudoeste 18 Oeste 0 -- -- 93
2020-09-20 02:00:00 14.4 7 Sudoeste 15 Oeste 0 -- -- 92
2020-09-20 01:00:00 15 11 Oeste 21 Oeste 0 -- -- 88
2020-09-20 00:00:00 15.4 9 Oeste 17 Oeste 0 -- -- 82
2020-09-19 23:00:00 16.4 4 Oeste 12 Oeste 0 -- -- 78
2020-09-19 22:00:00 17.6 4 Oeste 10 Oeste 0 -- -- 72
2020-09-19 21:00:00 18.3 3 Oeste 11 Sudoeste 0 -- -- 69
2020-09-19 20:00:00 19.8 3 Oeste 21 Sudoeste 0 -- -- 61
2020-09-19 19:00:00 20.6 4 Oeste 17 Oeste 0 -- -- 59
2020-09-19 18:00:00 21.1 10 Oeste 21 Oeste 0 -- -- 58
2020-09-19 17:00:00 21.6 10 Oeste 22 Oeste 0 -- -- 56
2020-09-19 16:00:00 21.9 7 Oeste 27 Oeste 0 -- -- 57
2020-09-19 15:00:00 21.2 12 Sudoeste 22 Sudoeste 0 -- -- 59
2020-09-19 14:00:00 20.3 13 Oeste 28 Sudoeste 0 -- -- 61
2020-09-19 13:00:00 18.9 10 Sudoeste 21 Sudoeste 0 -- -- 72
2020-09-19 12:00:00 17.1 10 Sudoeste 19 Sudoeste 0 -- -- 79
2020-09-19 11:00:00 16.7 8 Sudoeste 19 Sudoeste 0 -- -- 84
2020-09-19 10:00:00 15.2 6 Sudoeste 21 Sudoeste 0 -- -- 89
2020-09-19 09:00:00 13.9 9 Sudoeste 22 Sudoeste 0 -- -- 94
2020-09-19 08:00:00 13.6 10 Sudoeste 20 Sudoeste 0 -- -- 94
2020-09-19 07:00:00 13.9 6 Sudoeste 26 Oeste 0 -- -- 91
2020-09-19 06:00:00 14.1 11 Sudoeste 31 Sudoeste 0 -- -- 92
2020-09-19 05:00:00 14 14 Sudoeste 27 Sur 0 -- -- 93
2020-09-19 04:00:00 14.2 16 Sudoeste 32 Sudoeste 0.2 -- -- 93
2020-09-19 03:00:00 14.4 13 Sudoeste 33 Sudoeste 0.2 -- -- 94
2020-09-19 02:00:00 14.6 12 Sudoeste 30 Sudoeste 0 -- -- 93
2020-09-19 01:00:00 14.7 18 Sudoeste 35 Sur 0 -- -- 92
2020-09-19 00:00:00 14.8 14 Sudoeste 35 Sudoeste 0.2 -- -- 93
2020-09-18 23:00:00 15 17 Sur 41 Sur 0.4 -- -- 93
2020-09-18 22:00:00 15.3 20 Sudoeste 48 Sudoeste 0 -- -- 90
2020-09-18 21:00:00 15.3 18 Sur 47 Sur 0 -- -- 89
2020-09-18 20:00:00 15.5 25 Sur 57 Sur 0.4 -- -- 88
2020-09-18 19:00:00 17.1 22 Sur 51 Sur 0 -- -- 75
2020-09-18 18:00:00 17.8 24 Sur 42 Sur 0 -- -- 78
2020-09-18 17:00:00 17 19 Sur 40 Sudoeste 0 -- -- 89
2020-09-18 16:00:00 16 13 Sudoeste 29 Sudoeste 2.8 -- -- 91
2020-09-18 15:00:00 15.6 14 Sur 45 Sur 0.6 -- -- 90
2020-09-18 14:00:00 15.9 22 Sur 44 Sur 0.2 -- -- 92
2020-09-18 13:00:00 15.8 19 Sur 55 Sur 3.4 -- -- 91
2020-09-18 12:00:00 16.3 19 Sur 41 Sur 0 -- -- 91
2020-09-18 11:00:00 15.7 19 Sur 38 Sudoeste 1.8 -- -- 93
2020-09-18 10:00:00 15.5 13 Sur 39 Sudeste 0 -- -- 90
2020-09-18 09:00:00 14.4 18 Sur 37 Sur 0 -- -- 89
2020-09-18 08:00:00 14.1 15 Sur 35 Sur 0 -- -- 90
2020-09-18 07:00:00 14 14 Sur 33 Sur 0 -- -- 90
2020-09-18 06:00:00 14.5 17 Sur 33 Sur 0 -- -- 85
2020-09-18 05:00:00 15 17 Sur 33 Sur 0 -- -- 88
2020-09-18 04:00:00 15.6 17 Sur 33 Sudoeste 0.2 -- -- 90
2020-09-18 03:00:00 16.4 16 Sur 33 Sur 0 -- -- 90
2020-09-18 02:00:00 17.3 17 Sur 42 Sur 0 -- -- 87
2020-09-18 01:00:00 17.2 15 Sur 40 Sur 0 -- -- 87
2020-09-18 00:00:00 17 20 Sur 36 Sudeste 0 -- -- 86
2020-09-17 23:00:00 17.3 12 Sur 29 Sur 0 -- -- 81
2020-09-17 22:00:00 17.7 18 Sur 31 Sur 0 -- -- 78
2020-09-17 21:00:00 18.4 15 Sur 33 Sur 0 -- -- 76
2020-09-17 20:00:00 19.5 14 Sur 38 Sudeste 0 -- -- 72
2020-09-17 19:00:00 20.6 21 Sur 41 Sur 0 -- -- 68
2020-09-17 18:00:00 21.8 23 Sur 50 Sudeste 0 -- -- 64
2020-09-17 17:00:00 22 20 Sur 44 Sur 0 -- -- 65
2020-09-17 16:00:00 21.5 20 Sudeste 36 Sudeste 0 -- -- 68
2020-09-17 15:00:00 21.3 17 Sur 38 Sur 0 -- -- 67
2020-09-17 14:00:00 21.9 21 Sur 43 Sudeste 0 -- -- 62
2020-09-17 13:00:00 19.6 22 Sur 46 Sudeste 0 -- -- 73
2020-09-17 12:00:00 19.3 21 Sur 47 Sur 0 -- -- 74
2020-09-17 11:00:00 17.7 25 Sur 47 Sur 0 -- -- 83
2020-09-17 10:00:00 16.8 16 Sur 35 Sur 0 -- -- 92
2020-09-17 09:00:00 16.9 16 Sur 31 Sur 0 -- -- 85
2020-09-17 08:00:00 16.8 9 Sudeste 36 Sur 0 -- -- 87
2020-09-17 07:00:00 16.9 19 Sur 45 Sur 0 -- -- 88
2020-09-17 06:00:00 17.1 23 Sudeste 41 Sudeste 0 -- -- 93
2020-09-17 05:00:00 17.2 16 Sudeste 28 Sudeste 0 -- -- 91
2020-09-17 04:00:00 17.8 12 Sur 31 Sudeste 0 -- -- 87
2020-09-17 03:00:00 17.8 12 Sur 24 Sudeste 0 -- -- 85
2020-09-17 02:00:00 18.8 13 Sur 33 Sur 0 -- -- 73
2020-09-17 01:00:00 19 21 Sur 32 Sur 0 -- -- 73
2020-09-17 00:00:00 19.9 16 Sur 30 Sudeste 0 -- -- 69
2020-09-16 23:00:00 20.7 12 Sur 23 Sur 0 -- -- 68
2020-09-16 22:00:00 21.2 13 Sur 24 Sur 0 -- -- 60
2020-09-16 21:00:00 21.4 8 Sur 22 Sur 0 -- -- 54
2020-09-16 20:00:00 22.2 6 Sur 19 Sur 0 -- -- 59
2020-09-16 19:00:00 22.8 6 Sudeste 15 Sur 0 -- -- 56
2020-09-16 18:00:00 23.8 6 Sur 17 Sudoeste 0 -- -- 48
2020-09-16 17:00:00 24 9 Sudeste 23 Sur 0 -- -- 48
2020-09-16 16:00:00 25.1 10 Sudeste 22 Sudeste 0 -- -- 46
2020-09-16 15:00:00 25.5 11 Sudeste 24 Sudeste 0 -- -- 45
2020-09-16 14:00:00 24.8 10 Sudeste 28 Sudeste 0 -- -- 47
2020-09-16 13:00:00 25.4 13 Sudeste 28 Sudeste 0 -- -- 44
2020-09-16 12:00:00 24.6 12 Sudeste 26 Este 0 -- -- 48
2020-09-16 11:00:00 23.5 9 Sudeste 17 Este 0 -- -- 53
2020-09-16 10:00:00 21.3 9 Este 13 Este 0 -- -- 56
2020-09-16 09:00:00 16.8 4 Sur 6 Sudeste 0 -- -- 73
2020-09-16 08:00:00 15.1 5 Sur 6 Sur 0 -- -- 76
2020-09-16 07:00:00 14.6 0 Calma 5 Sudoeste 0 -- -- 78
2020-09-16 06:00:00 15.2 0 Calma 7 Norte 0 -- -- 74
2020-09-16 05:00:00 16.3 4 Sur 11 Sudoeste 0 -- -- 70
2020-09-16 04:00:00 17 8 Oeste 13 Oeste 0 -- -- 72
2020-09-16 03:00:00 16.8 8 Oeste 13 Oeste 0 -- -- 71
2020-09-16 02:00:00 18.4 6 Oeste 16 Noroeste 0 -- -- 62
2020-09-16 01:00:00 19.6 7 Sudoeste 13 Oeste 0 -- -- 59
2020-09-16 00:00:00 20.2 9 Oeste 17 Oeste 0 -- -- 56
2020-09-15 23:00:00 20.7 9 Sudoeste 12 Sudoeste 0 -- -- 58
2020-09-15 22:00:00 21.4 8 Sur 13 Sur 0 -- -- 53
2020-09-15 21:00:00 22.3 7 Sur 9 Sur 0 -- -- 48
2020-09-15 20:00:00 25.3 6 Sur 12 Sudoeste 0 -- -- 42
2020-09-15 19:00:00 26.9 6 Sudeste 19 Sudoeste 0 -- -- 38
2020-09-15 18:00:00 27.4 6 Sudoeste 18 Sudoeste 0 -- -- 38
2020-09-15 17:00:00 27.2 9 Sudeste 36 Sur 0 -- -- 41
2020-09-15 16:00:00 26.6 10 Sudoeste 25 Sudoeste 0 -- -- 43
2020-09-15 15:00:00 25.7 11 Sudoeste 24 Sudoeste 0 -- -- 47
2020-09-15 14:00:00 23.5 8 Sudoeste 23 Sudoeste 0 -- -- 55
2020-09-15 13:00:00 24.4 11 Sudeste 23 Sudeste 0 -- -- 51
2020-09-15 12:00:00 22.3 14 Sudeste 28 Sudeste 0 -- -- 61
2020-09-15 11:00:00 21.5 11 Sudeste 23 Sudeste 0 -- -- 68
2020-09-15 10:00:00 19.4 7 Sur 17 Sudoeste 0 -- -- 76
2020-09-15 09:00:00 17.1 3 Este 12 Sudeste 0 -- -- 90
2020-09-15 08:00:00 15.7 3 Sudeste 13 Sudoeste 0 -- -- 89
2020-09-15 07:00:00 14.9 4 Sudoeste 8 Sudoeste 0 -- -- 81
2020-09-15 06:00:00 14.9 0 Calma 11 Oeste 0 -- -- 73
2020-09-15 05:00:00 16.5 4 Sudoeste 9 Oeste 0 -- -- 62
2020-09-15 04:00:00 16.6 3 Noroeste 9 Sudoeste 0 -- -- 62
2020-09-15 03:00:00 17.2 6 Oeste 26 Sudoeste 0 -- -- 62
2020-09-15 02:00:00 18.1 13 Sudoeste 26 Sudoeste 0 -- -- 66
2020-09-15 01:00:00 18.4 13 Sudoeste 24 Sudoeste 0 -- -- 72
2020-09-15 00:00:00 18.9 11 Sur 23 Sur 0 -- -- 71
2020-09-14 23:00:00 20.2 11 Sur 22 Sur 0 -- -- 80
2020-09-14 22:00:00 21.2 8 Sudoeste 22 Sudoeste 0 -- -- 75
2020-09-14 21:00:00 22.5 12 Sur 22 Sur 0 -- -- 67
2020-09-14 20:00:00 24.2 9 Sur 27 Sur 0 -- -- 58
2020-09-14 19:00:00 25.9 10 Sur 32 Sudoeste 0 -- -- 53
2020-09-14 18:00:00 27.2 15 Sudoeste 32 Sudoeste 0 -- -- 50
2020-09-14 17:00:00 27.8 13 Sur 35 Sur 0 -- -- 46
2020-09-14 16:00:00 28.1 19 Sudoeste 41 Sudoeste 0 -- -- 43
2020-09-14 15:00:00 28.3 17 Sur 35 Sur 0 -- -- 40
2020-09-14 14:00:00 27.9 16 Sur 39 Sudeste 0 -- -- 40
2020-09-14 13:00:00 26.5 21 Sudeste 37 Sur 0 -- -- 42
2020-09-14 12:00:00 25.6 17 Sudeste 35 Sudeste 0 -- -- 44
2020-09-14 11:00:00 23.4 20 Sur 33 Sur 0 -- -- 50
2020-09-14 10:00:00 21.9 18 Sudeste 28 Sudeste 0 -- -- 54
2020-09-14 09:00:00 20 15 Sudeste 23 Sudeste 0 -- -- 58
2020-09-14 08:00:00 19.8 13 Sudeste 23 Sudeste 0 -- -- 61
2020-09-14 07:00:00 19.6 12 Sudeste 22 Sudeste 0 -- -- 63
2020-09-14 06:00:00 19.1 8 Sur 12 Sudeste 0 -- -- 68
2020-09-14 05:00:00 19.1 3 Sudeste 9 Este 0 -- -- 68
2020-09-14 04:00:00 19.6 4 Sudeste 5 Sudeste 0 -- -- 68
2020-09-14 03:00:00 19.9 4 Sur 10 Sur 0 -- -- 65
2020-09-14 02:00:00 20 4 Sur 10 Sur 0 -- -- 65
2020-09-14 01:00:00 21.1 4 Sur 13 Sudoeste 0 -- -- 60
2020-09-14 00:00:00 21.1 7 Sur 20 Sudoeste 0 -- -- 63
2020-09-13 23:00:00 21.9 11 Sudoeste 18 Sudoeste 0 -- -- 64
2020-09-13 22:00:00 23.1 12 Sudoeste 18 Sudoeste 0 -- -- 61
2020-09-13 21:00:00 25.1 12 Sudoeste 22 Sudoeste 0 -- -- 54
2020-09-13 20:00:00 28.4 6 Sur 24 Sur 0 -- -- 31
2020-09-13 19:00:00 29.9 10 Sur 23 Sur 0 -- -- 29
2020-09-13 18:00:00 29.8 12 Sur 29 Sur 0 -- -- 28
2020-09-13 17:00:00 30.1 14 Sur 31 Este 0 -- -- 30
2020-09-13 16:00:00 29.8 15 Sudeste 33 Este 0 -- -- 30
2020-09-13 15:00:00 29.1 21 Sudeste 42 Sudeste 0 -- -- 30
2020-09-13 14:00:00 28.9 20 Sudeste 37 Sudeste 0 -- -- 30
2020-09-13 13:00:00 27.7 21 Sudeste 39 Sudeste 0 -- -- 31
2020-09-13 12:00:00 25.6 20 Sudeste 37 Sudeste 0 -- -- 36
2020-09-13 11:00:00 24.1 17 Sudeste 33 Sudeste 0 -- -- 38
2020-09-13 10:00:00 23 17 Sudeste 27 Sudeste 0 -- -- 40
2020-09-13 09:00:00 21.9 13 Sudeste 24 Sudeste 0 -- -- 43
2020-09-13 08:00:00 21 13 Sudeste 24 Sudeste 0 -- -- 48
2020-09-13 07:00:00 21.6 12 Sudeste 24 Sudeste 0 -- -- 45
2020-09-13 06:00:00 20.6 9 Sudeste 17 Sudeste 0 -- -- 45
2020-09-13 05:00:00 20.8 7 Sur 21 Sudeste 0 -- -- 44
2020-09-13 04:00:00 21.1 11 Sudeste 20 Sudeste 0 -- -- 49
2020-09-13 03:00:00 21.9 14 Sur 21 Sur 0 -- -- 46
2020-09-13 02:00:00 22.4 10 Sur 16 Sudeste 0 -- -- 42
2020-09-13 01:00:00 23.4 9 Sur 18 Sudeste 0 -- -- 41
2020-09-13 00:00:00 24.3 11 Sudeste 18 Sur 0 -- -- 35
2020-09-12 23:00:00 25.1 9 Sur 17 Sudeste 0 -- -- 30
2020-09-12 22:00:00 25.2 8 Sur 12 Sudeste 0 -- -- 32
2020-09-12 21:00:00 26.7 6 Sur 14 Sudeste 0 -- -- 30
2020-09-12 20:00:00 29 8 Sur 21 Sudeste 0 -- -- 28
2020-09-12 19:00:00 31 8 Sudeste 22 Sudeste 0 -- -- 26
2020-09-12 18:00:00 31.2 8 Sur 24 Este 0 -- -- 25
2020-09-12 17:00:00 31.9 11 Sudeste 23 Sudeste 0 -- -- 25
2020-09-12 16:00:00 30.6 10 Sudeste 30 Sudeste 0 -- -- 26
2020-09-12 15:00:00 31.5 13 Sudeste 26 Sudeste 0 -- -- 25
2020-09-12 14:00:00 30.5 13 Sudeste 30 Sur 0 -- -- 26
2020-09-12 13:00:00 29 19 Sudeste 32 Sudeste 0 -- -- 28
2020-09-12 12:00:00 27.3 17 Sudeste 32 Sudeste 0 -- -- 30
2020-09-12 11:00:00 26 14 Sudeste 25 Sudeste 0 -- -- 32
2020-09-12 10:00:00 24.4 11 Sudeste 20 Sudeste 0 -- -- 39
2020-09-12 09:00:00 21.1 8 Sur 15 Sur 0 -- -- 47
2020-09-12 08:00:00 20.1 8 Sur 12 Sudeste 0 -- -- 48
2020-09-12 07:00:00 19.8 6 Sur 10 Sudeste 0 -- -- 48
2020-09-12 06:00:00 19.2 3 Sudeste 7 Sudeste 0 -- -- 50
2020-09-12 05:00:00 18.8 0 Calma 6 Oeste 0 -- -- 53
2020-09-12 04:00:00 19.7 5 Oeste 12 Oeste 0 -- -- 50
2020-09-12 03:00:00 20.8 5 Oeste 14 Oeste 0 -- -- 49
2020-09-12 02:00:00 21.9 6 Oeste 12 Sudoeste 0 -- -- 42
2020-09-12 01:00:00 23 9 Sudoeste 14 Oeste 0 -- -- 39
2020-09-12 00:00:00 23.1 8 Sudoeste 14 Oeste 0 -- -- 38
2020-09-11 23:00:00 23.4 8 Sur 13 Sudoeste 0 -- -- 38
2020-09-11 22:00:00 24.6 9 Sudoeste 15 Sur 0 -- -- 36
2020-09-11 21:00:00 25.8 7 Sur 10 Sur 0 -- -- 34
2020-09-11 20:00:00 28.3 6 Sur 16 Sur 0 -- -- 31
2020-09-11 19:00:00 29.5 8 Sur 27 Este 0 -- -- 29
2020-09-11 18:00:00 29.5 8 Sudeste 25 Sur 0 -- -- 30
2020-09-11 17:00:00 30.2 10 Sur 23 Sur 0 -- -- 29
2020-09-11 16:00:00 29.4 5 Sur 21 Sur 0 -- -- 29
2020-09-11 15:00:00 31.1 8 Este 24 Sudeste 0 -- -- 25
2020-09-11 14:00:00 30.1 14 Sudeste 24 Sudeste 0 -- -- 29
2020-09-11 13:00:00 30 11 Sudeste 21 Sudeste 0 -- -- 29
2020-09-11 12:00:00 28.3 12 Sudeste 23 Sudeste 0 -- -- 32
2020-09-11 11:00:00 26.6 8 Sudeste 14 Sudeste 0 -- -- 35
2020-09-11 10:00:00 25.6 5 Sudeste 10 Sudeste 0 -- -- 34
2020-09-11 09:00:00 21.5 5 Sur 12 Sur 0 -- -- 39
2020-09-11 08:00:00 18.7 7 Sur 11 Sur 0 -- -- 43
2020-09-11 07:00:00 18 0 Calma 8 Oeste 0 -- -- 46
2020-09-11 06:00:00 19.8 6 Oeste 10 Oeste 0 -- -- 41
2020-09-11 05:00:00 20.2 8 Oeste 15 Oeste 0 -- -- 39
2020-09-11 04:00:00 20.7 12 Oeste 16 Sudoeste 0 -- -- 40
2020-09-11 03:00:00 21.2 10 Oeste 15 Noroeste 0 -- -- 38
2020-09-11 02:00:00 20.1 6 Sur 9 Sur 0 -- -- 41
2020-09-11 01:00:00 20.4 5 Sudoeste 8 Sur 0 -- -- 40
2020-09-11 00:00:00 22.1 6 Oeste 15 Sudoeste 0 -- -- 39
2020-09-10 23:00:00 23.4 10 Sudoeste 16 Sudoeste 0 -- -- 40
2020-09-10 22:00:00 23.5 7 Sur 13 Sudeste 0 -- -- 34
2020-09-10 21:00:00 24.1 0 Calma 11 Nordeste 0 -- -- 29
2020-09-10 20:00:00 27.9 6 Norte 20 Nordeste 0 -- -- 24
2020-09-10 19:00:00 29.5 9 Norte 18 Norte 0 -- -- 23
2020-09-10 18:00:00 29.9 6 Norte 17 Nordeste 0 -- -- 23
2020-09-10 17:00:00 30 7 Nordeste 19 Nordeste 0 -- -- 23
2020-09-10 16:00:00 29.8 9 Este 22 Nordeste 0 -- -- 24
2020-09-10 15:00:00 30.3 5 Noroeste 19 Norte 0 -- -- 24
2020-09-10 14:00:00 29.7 4 Este 19 Este 0 -- -- 26
2020-09-10 13:00:00 28.6 5 Noroeste 18 Este 0 -- -- 27
2020-09-10 12:00:00 28 7 Nordeste 15 Este 0 -- -- 30
2020-09-10 11:00:00 27 3 Noroeste 8 Este 0 -- -- 30
2020-09-10 10:00:00 25 3 Nordeste 6 Noroeste 0 -- -- 34
2020-09-10 09:00:00 20.8 4 Noroeste 9 Oeste 0 -- -- 43
2020-09-10 08:00:00 17.6 5 Oeste 8 Oeste 0 -- -- 50
2020-09-10 07:00:00 18.3 6 Oeste 9 Oeste 0 -- -- 49
2020-09-10 06:00:00 18.7 7 Oeste 9 Oeste 0 -- -- 52
2020-09-10 05:00:00 18.7 6 Oeste 10 Oeste 0 -- -- 49
2020-09-10 04:00:00 19.6 7 Oeste 13 Oeste 0 -- -- 43
2020-09-10 03:00:00 19.1 8 Oeste 15 Oeste 0 -- -- 44
2020-09-10 02:00:00 18.7 3 Sudoeste 9 Sur 0 -- -- 45
2020-09-10 01:00:00 19.1 3 Oeste 7 Oeste 0 -- -- 46
2020-09-10 00:00:00 19.6 3 Noroeste 4 Oeste 0 -- -- 45
2020-09-09 23:00:00 21.8 0 Calma 13 Nordeste 0 -- -- 41
2020-09-09 22:00:00 23.9 7 Norte 14 Nordeste 0 -- -- 37
2020-09-09 21:00:00 25.4 9 Norte 18 Norte 0 -- -- 38
2020-09-09 20:00:00 26.7 10 Norte 19 Norte 0 -- -- 36
2020-09-09 19:00:00 28 8 Norte 15 Norte 0 -- -- 33
2020-09-09 18:00:00 27.6 8 Norte 15 Norte 0 -- -- 37
2020-09-09 17:00:00 27.1 6 Norte 18 Noroeste 0 -- -- 41
2020-09-09 16:00:00 28 5 Nordeste 14 Oeste 0 -- -- 41
2020-09-09 15:00:00 25.6 4 Sudoeste 15 Norte 0 -- -- 50
2020-09-09 14:00:00 25.1 5 Nordeste 12 Este 0 -- -- 53
2020-09-09 13:00:00 24 2 Noroeste 14 Noroeste 0 -- -- 57
2020-09-09 12:00:00 23.3 5 Oeste 14 Noroeste 0 -- -- 60
2020-09-09 11:00:00 21.3 6 Norte 13 Noroeste 0 -- -- 70
2020-09-09 10:00:00 19.1 4 Oeste 8 Oeste 0 -- -- 84
2020-09-09 09:00:00 17 3 Noroeste 5 Noroeste 0 -- -- 91
2020-09-09 08:00:00 15.6 0 Calma 8 Sur 0 -- -- 85
2020-09-09 07:00:00 16.8 4 Sur 8 Sudoeste 0 -- -- 87
2020-09-09 06:00:00 17.3 5 Sudoeste 7 Sudoeste 0 -- -- 85
2020-09-09 05:00:00 17.7 5 Sudoeste 8 Sur 0 -- -- 81
2020-09-09 04:00:00 17.9 3 Sudoeste 6 Sur 0 -- -- 75
2020-09-09 03:00:00 19.4 2 Noroeste 15 Oeste 0 -- -- 71
2020-09-09 02:00:00 19.8 11 Oeste 22 Sudoeste 0 -- -- 72
2020-09-09 01:00:00 20.3 14 Sudoeste 25 Sudoeste 0 -- -- 74
2020-09-09 00:00:00 21.3 12 Sudoeste 20 Sudoeste 0 -- -- 70
2020-09-08 23:00:00 22.3 4 Sudeste 15 Sudoeste 0 -- -- 64
2020-09-08 22:00:00 23.5 8 Sudoeste 18 Sudoeste 0 -- -- 61
2020-09-08 21:00:00 25.4 12 Sur 24 Sur 0 -- -- 43
2020-09-08 20:00:00 27.1 8 Sur 17 Sur 0 -- -- 38
2020-09-08 19:00:00 28.7 9 Sudeste 16 Sudeste 0 -- -- 35
2020-09-08 18:00:00 29.1 5 Este 18 Sudeste 0 -- -- 33
2020-09-08 17:00:00 28.7 6 Nordeste 22 Este 0 -- -- 34
2020-09-08 16:00:00 29.8 6 Oeste 22 Este 0 -- -- 32
2020-09-08 15:00:00 28.7 4 Norte 16 Este 0 -- -- 35
2020-09-08 14:00:00 28.1 8 Sudeste 19 Este 0 -- -- 34
2020-09-08 13:00:00 27.4 10 Sudeste 23 Este 0 -- -- 39
2020-09-08 12:00:00 25.7 11 Este 18 Este 0 -- -- 46
2020-09-08 11:00:00 24 10 Este 19 Sudeste 0 -- -- 51
2020-09-08 10:00:00 22 11 Sudeste 20 Sudeste 0 -- -- 51
2020-09-08 09:00:00 19.7 8 Sudeste 16 Sudeste 0 -- -- 36
2020-09-08 08:00:00 18.5 6 Sudeste 15 Sudeste 0 -- -- 36
2020-09-08 07:00:00 19.4 10 Sudeste 22 Sudeste 0 -- -- 32
2020-09-08 06:00:00 21 9 Sudeste 22 Sudeste 0 -- -- 31
2020-09-08 05:00:00 21.7 13 Sur 21 Sur 0 -- -- 32
2020-09-08 04:00:00 21.4 12 Sur 19 Sudeste 0 -- -- 35
2020-09-08 03:00:00 19.4 6 Sudoeste 9 Sudoeste 0 -- -- 39
2020-09-08 02:00:00 21.4 0 Calma 13 Nordeste 0 -- -- 35
2020-09-08 01:00:00 21.6 0 Calma 8 Noroeste 0 -- -- 33
2020-09-08 00:00:00 23.9 5 Norte 12 Nordeste 0 -- -- 30
2020-09-07 23:00:00 24.2 3 Norte 14 Norte 0 -- -- 33
2020-09-07 22:00:00 26.4 8 Norte 22 Norte 0 -- -- 30
2020-09-07 21:00:00 28.1 12 Norte 22 Norte 0 -- -- 27
2020-09-07 20:00:00 29.8 14 Norte 23 Norte 0 -- -- 26
2020-09-07 19:00:00 31 12 Norte 27 Norte 0 -- -- 26
2020-09-07 18:00:00 31.8 12 Norte 23 Norte 0 -- -- 25
2020-09-07 17:00:00 32.4 7 Noroeste 25 Noroeste 0 -- -- 25
2020-09-07 16:00:00 32.3 10 Noroeste 31 Nordeste 0 -- -- 24
2020-09-07 15:00:00 31.6 13 Nordeste 28 Nordeste 0 -- -- 27
2020-09-07 14:00:00 31.6 10 Norte 23 Norte 0 -- -- 26
2020-09-07 13:00:00 30.4 10 Norte 19 Norte 0 -- -- 28
2020-09-07 12:00:00 29.5 9 Norte 15 Norte 0 -- -- 30
2020-09-07 11:00:00 27.9 6 Norte 13 Norte 0 -- -- 34
2020-09-07 10:00:00 26.3 6 Noroeste 12 Noroeste 0 -- -- 36
2020-09-07 09:00:00 23.5 3 Norte 9 Oeste 0 -- -- 38
2020-09-07 08:00:00 22.2 7 Oeste 10 Oeste 0 -- -- 39
2020-09-07 07:00:00 22.4 8 Oeste 13 Oeste 0 -- -- 40
2020-09-07 06:00:00 21.6 10 Oeste 14 Sudoeste 0 -- -- 45
2020-09-07 05:00:00 23.4 8 Oeste 13 Sudoeste 0 -- -- 38
2020-09-07 04:00:00 23 7 Oeste 17 Sudoeste 0 -- -- 40
2020-09-07 03:00:00 22.9 9 Oeste 17 Oeste 0 -- -- 44
2020-09-07 02:00:00 23.4 6 Oeste 15 Sudoeste 0 -- -- 40
2020-09-07 01:00:00 22.8 8 Oeste 18 Noroeste 0 -- -- 34
2020-09-07 00:00:00 22.6 5 Oeste 8 Oeste 0 -- -- 34
2020-09-06 23:00:00 23.1 4 Sudoeste 9 Sudoeste 0 -- -- 36
2020-09-06 22:00:00 25 4 Sur 8 Sudoeste 0 -- -- 37
2020-09-06 21:00:00 28.3 4 Este 14 Nordeste 0 -- -- 31
2020-09-06 20:00:00 30.6 8 Nordeste 21 Nordeste 0 -- -- 23
2020-09-06 19:00:00 32.1 9 Norte 22 Noroeste 0 -- -- 22
2020-09-06 18:00:00 32.7 11 Norte 20 Norte 0 -- -- 21
2020-09-06 17:00:00 33 9 Norte 20 Nordeste 0 -- -- 21
2020-09-06 16:00:00 32.5 8 Norte 24 Nordeste 0 -- -- 22
2020-09-06 15:00:00 32.5 4 Este 20 Oeste 0 -- -- 24
2020-09-06 14:00:00 31.7 9 Este 19 Nordeste 0 -- -- 27
2020-09-06 13:00:00 31 6 Sudeste 16 Este 0 -- -- 28
2020-09-06 12:00:00 29.6 7 Sudeste 19 Sudeste 0 -- -- 32
2020-09-06 11:00:00 27.9 12 Sudeste 20 Sudeste 0 -- -- 37
2020-09-06 10:00:00 26.5 9 Sudeste 15 Sudeste 0 -- -- 38
2020-09-06 09:00:00 22.8 7 Sur 10 Sur 0 -- -- 45
2020-09-06 08:00:00 18.9 8 Sur 15 Sur 0 -- -- 55
2020-09-06 07:00:00 17.6 11 Sur 17 Sur 0 -- -- 64
2020-09-06 06:00:00 19.5 8 Sur 15 Sudeste 0 -- -- 51
2020-09-06 05:00:00 20.3 5 Sur 10 Sur 0 -- -- 48
2020-09-06 04:00:00 22.2 7 Sur 12 Sudoeste 0 -- -- 43
2020-09-06 03:00:00 23.2 10 Sudoeste 15 Sudoeste 0 -- -- 42
2020-09-06 02:00:00 23.8 12 Sudoeste 14 Sudoeste 0 -- -- 40
2020-09-06 01:00:00 24.4 10 Sudoeste 16 Sudoeste 0 -- -- 38
2020-09-06 00:00:00 24.5 12 Sudoeste 17 Sudoeste 0 -- -- 37
2020-09-05 23:00:00 24.6 8 Sudoeste 14 Sudoeste 0 -- -- 38
2020-09-05 22:00:00 26.6 10 Sur 17 Sudeste 0 -- -- 35
2020-09-05 21:00:00 27.9 4 Norte 10 Norte 0 -- -- 28
2020-09-05 20:00:00 30.4 5 Este 15 Norte 0 -- -- 25
2020-09-05 19:00:00 31.8 4 Nordeste 18 Nordeste 0 -- -- 23
2020-09-05 18:00:00 32.5 9 Nordeste 18 Nordeste 0 -- -- 22
2020-09-05 17:00:00 32.6 6 Sur 21 Nordeste 0 -- -- 23
2020-09-05 16:00:00 32.2 7 Nordeste 16 Este 0 -- -- 23
2020-09-05 15:00:00 31.3 8 Sur 17 Sudeste 0 -- -- 27
2020-09-05 14:00:00 30.4 7 Este 19 Sudeste 0 -- -- 27
2020-09-05 13:00:00 29.6 10 Sudeste 22 Sudeste 0 -- -- 32
2020-09-05 12:00:00 28.3 12 Sudeste 23 Sudeste 0 -- -- 33
2020-09-05 11:00:00 26.6 12 Sudeste 20 Sudeste 0 -- -- 37
2020-09-05 10:00:00 25.6 10 Sudeste 16 Sudeste 0 -- -- 37
2020-09-05 09:00:00 22.2 7 Sur 12 Sur 0 -- -- 42
2020-09-05 08:00:00 19.3 5 Sur 13 Sur 0 -- -- 49
2020-09-05 07:00:00 19.6 9 Sur 15 Sur 0 -- -- 51
2020-09-05 06:00:00 19.7 6 Sur 14 Sur 0 -- -- 48
2020-09-05 05:00:00 19.6 8 Sur 13 Sur 0 -- -- 46
2020-09-05 04:00:00 20.2 8 Sur 12 Sur 0 -- -- 44
2020-09-05 03:00:00 19.4 5 Sur 9 Sudoeste 0 -- -- 41
2020-09-05 02:00:00 21.8 8 Oeste 14 Oeste 0 -- -- 37
2020-09-05 01:00:00 23.3 7 Sur 17 Sur 0 -- -- 33
2020-09-05 00:00:00 24 10 Sur 18 Sur 0 -- -- 32
2020-09-04 23:00:00 24.5 9 Sur 15 Sur 0 -- -- 31
2020-09-04 22:00:00 25.2 8 Sur 14 Sur 0 -- -- 30
2020-09-04 21:00:00 26.8 9 Sur 14 Sudoeste 0 -- -- 27
2020-09-04 20:00:00 29.2 8 Sur 19 Sudeste 0 -- -- 26
2020-09-04 19:00:00 31.1 10 Sudeste 19 Sudeste 0 -- -- 25
2020-09-04 18:00:00 31.7 10 Sudeste 19 Este 0 -- -- 24
2020-09-04 17:00:00 31.8 6 Noroeste 23 Este 0 -- -- 25
2020-09-04 16:00:00 31.3 9 Este 26 Este 0 -- -- 27
2020-09-04 15:00:00 30.6 13 Sudeste 26 Sudeste 0 -- -- 30
2020-09-04 14:00:00 29.1 11 Este 30 Este 0 -- -- 35
2020-09-04 13:00:00 28.4 18 Este 30 Este 0 -- -- 35
2020-09-04 12:00:00 26.7 12 Sudeste 27 Sudeste 0 -- -- 39
2020-09-04 11:00:00 24.2 16 Sudeste 28 Sudeste 0 -- -- 45
2020-09-04 10:00:00 22.2 13 Sudeste 24 Sudeste 0 -- -- 50
2020-09-04 09:00:00 20.5 8 Sudeste 23 Sudeste 0 -- -- 52
2020-09-04 08:00:00 18.7 15 Sur 31 Sudeste 0 -- -- 55
2020-09-04 07:00:00 19 18 Sur 33 Sudeste 0 -- -- 53
2020-09-04 06:00:00 19.4 19 Sudeste 32 Sudeste 0 -- -- 47
2020-09-04 05:00:00 19.5 14 Sur 25 Sudeste 0 -- -- 49
2020-09-04 04:00:00 19.7 17 Sur 26 Sur 0 -- -- 49
2020-09-04 03:00:00 20.5 16 Sudeste 27 Sudeste 0 -- -- 46
2020-09-04 02:00:00 21.7 16 Sur 28 Sudeste 0 -- -- 41
2020-09-04 01:00:00 22.7 16 Sudeste 30 Sudeste 0 -- -- 38
2020-09-04 00:00:00 23.3 13 Sudeste 25 Sur 0 -- -- 37
2020-09-03 23:00:00 24 12 Sudeste 22 Sudeste 0 -- -- 36
2020-09-03 22:00:00 24.8 10 Sur 23 Sur 0 -- -- 35
2020-09-03 21:00:00 26.2 12 Sur 22 Sur 0 -- -- 33
2020-09-03 20:00:00 28.7 8 Sur 17 Sur 0 -- -- 26
2020-09-03 19:00:00 30.3 10 Sur 22 Sudeste 0 -- -- 25
2020-09-03 18:00:00 31.5 9 Sudeste 21 Sudeste 0 -- -- 22
2020-09-03 17:00:00 31.2 7 Sudeste 28 Este 0 -- -- 24
2020-09-03 16:00:00 31.2 9 Este 29 Este 0 -- -- 24
2020-09-03 15:00:00 30.7 13 Sudeste 29 Sur 0 -- -- 23
2020-09-03 14:00:00 29.5 10 Sudeste 31 Sudeste 0 -- -- 28
2020-09-03 13:00:00 28.4 11 Sudeste 27 Sudeste 0 -- -- 29
2020-09-03 12:00:00 26.9 15 Sudeste 26 Sudeste 0 -- -- 33
2020-09-03 11:00:00 25.8 14 Sudeste 24 Sudeste 0 -- -- 33
2020-09-03 10:00:00 23.2 14 Sudeste 24 Sudeste 0 -- -- 45
2020-09-03 09:00:00 20.5 15 Sudeste 22 Sudeste 0 -- -- 54
2020-09-03 08:00:00 19 10 Sur 15 Sur 0 -- -- 46
2020-09-03 07:00:00 18.4 5 Sur 15 Sur 0 -- -- 47
2020-09-03 06:00:00 18.8 8 Sur 14 Sur 0 -- -- 46
2020-09-03 05:00:00 19.1 5 Sudoeste 11 Sudeste 0 -- -- 41
2020-09-03 04:00:00 19.8 8 Sudoeste 13 Sudoeste 0 -- -- 43
2020-09-03 03:00:00 20.7 6 Sudoeste 11 Sudoeste 0 -- -- 42
2020-09-03 02:00:00 21.2 8 Sudoeste 13 Sudoeste 0 -- -- 42
2020-09-03 01:00:00 21.3 8 Sudoeste 12 Sudoeste 0 -- -- 44
2020-09-03 00:00:00 21.9 10 Sudoeste 15 Sudoeste 0 -- -- 43
2020-09-02 23:00:00 22.9 12 Sudoeste 18 Sudoeste 0 -- -- 43
2020-09-02 22:00:00 24.3 10 Sur 18 Sur 0 -- -- 34
2020-09-02 21:00:00 25.2 7 Sur 15 Sur 0 -- -- 30
2020-09-02 20:00:00 27.5 6 Sudeste 19 Sudeste 0 -- -- 27
2020-09-02 19:00:00 29.7 4 Oeste 20 Sur 0 -- -- 24
2020-09-02 18:00:00 30.6 6 Sudeste 19 Sudeste 0 -- -- 23
2020-09-02 17:00:00 30 7 Noroeste 26 Este 0 -- -- 23
2020-09-02 16:00:00 29.8 8 Este 22 Sudeste 0 -- -- 24
2020-09-02 15:00:00 29.2 9 Este 22 Sudeste 0 -- -- 24
2020-09-02 14:00:00 28.7 12 Sudeste 20 Este 0 -- -- 23
2020-09-02 13:00:00 27.8 9 Este 21 Este 0 -- -- 28
2020-09-02 12:00:00 26.3 4 Sur 18 Este 0 -- -- 36
2020-09-02 11:00:00 25 6 Nordeste 11 Nordeste 0 -- -- 38
2020-09-02 10:00:00 23.2 2 Nordeste 5 Noroeste 0 -- -- 45
2020-09-02 09:00:00 19.5 4 Oeste 9 Oeste 0 -- -- 55
2020-09-02 08:00:00 17 8 Oeste 9 Oeste 0 -- -- 66
2020-09-02 07:00:00 17.5 7 Oeste 12 Oeste 0 -- -- 66
2020-09-02 06:00:00 17.4 7 Oeste 12 Oeste 0 -- -- 65
2020-09-02 05:00:00 17.6 7 Oeste 15 Sudoeste 0 -- -- 63
2020-09-02 04:00:00 17.8 10 Oeste 18 Oeste 0 -- -- 61
2020-09-02 03:00:00 17.3 9 Oeste 14 Oeste 0 -- -- 61
2020-09-02 02:00:00 18.3 8 Oeste 16 Oeste 0 -- -- 56
2020-09-02 01:00:00 19.7 10 Oeste 20 Noroeste 0 -- -- 47
2020-09-02 00:00:00 21 11 Oeste 22 Oeste 0 -- -- 37
2020-09-01 23:00:00 21.1 10 Sudoeste 17 Oeste 0 -- -- 25
2020-09-01 22:00:00 22.4 9 Oeste 18 Oeste 0 -- -- 18
2020-09-01 21:00:00 24.3 11 Oeste 24 Oeste 0 -- -- 16
2020-09-01 20:00:00 26.2 10 Noroeste 24 Noroeste 0 -- -- 16
2020-09-01 19:00:00 27.6 10 Noroeste 22 Sudoeste 0 -- -- 18
2020-09-01 18:00:00 28.7 8 Noroeste 29 Oeste 0 -- -- 17
2020-09-01 17:00:00 29.2 12 Noroeste 27 Noroeste 0 -- -- 16
2020-09-01 16:00:00 29 9 Noroeste 21 Noroeste 0 -- -- 16
2020-09-01 15:00:00 29.1 8 Noroeste 23 Noroeste 0 -- -- 17
2020-09-01 14:00:00 28 10 Norte 19 Noroeste 0 -- -- 18
2020-09-01 13:00:00 27.2 7 Nordeste 16 Norte 0 -- -- 20
2020-09-01 12:00:00 25.2 3 Oeste 10 Noroeste 0 -- -- 29
2020-09-01 11:00:00 23.7 5 Oeste 14 Noroeste 0 -- -- 31
2020-09-01 10:00:00 20.5 4 Noroeste 10 Sur 0 -- -- 40
2020-09-01 09:00:00 19.3 9 Sudoeste 17 Oeste 0 -- -- 39
2020-09-01 08:00:00 18.7 6 Sudoeste 8 Sur 0 -- -- 35
2020-09-01 07:00:00 18.1 4 Sudoeste 6 Sudoeste 0 -- -- 39
2020-09-01 06:00:00 18.1 5 Sudoeste 10 Sur 0 -- -- 39
2020-09-01 05:00:00 18 5 Sur 11 Sur 0 -- -- 34
2020-09-01 04:00:00 17.4 4 Sudoeste 6 Sur 0 -- -- 34
2020-09-01 03:00:00 19 5 Sur 8 Sur 0 -- -- 28
2020-09-01 02:00:00 19.3 5 Sur 9 Sudeste 0 -- -- 27
2020-09-01 01:00:00 18.7 5 Sur 7 Sudeste 0 -- -- 29
2020-09-01 00:00:00 18.4 0 Calma 4 Noroeste 0 -- -- 32
2020-08-31 23:00:00 19.8 3 Noroeste 5 Oeste 0 -- -- 30
2020-08-31 22:00:00 22.2 3 Norte 11 Norte 0 -- -- 26
2020-08-31 21:00:00 23.7 4 Oeste 15 Norte 0 -- -- 24
2020-08-31 20:00:00 27 9 Norte 20 Norte 0 -- -- 20
2020-08-31 19:00:00 28.6 7 Norte 17 Nordeste 0 -- -- 22
2020-08-31 18:00:00 28.9 10 Nordeste 21 Nordeste 0 -- -- 22
2020-08-31 17:00:00 28.8 4 Nordeste 14 Sudoeste 0 -- -- 23
2020-08-31 16:00:00 27.9 6 Norte 16 Sudeste 0 -- -- 25
2020-08-31 15:00:00 27.8 6 Norte 21 Este 0 -- -- 26
2020-08-31 14:00:00 26.7 7 Nordeste 19 Sudeste 0 -- -- 27
2020-08-31 13:00:00 25.5 8 Nordeste 24 Este 0 -- -- 26
2020-08-31 12:00:00 24.6 12 Sudeste 24 Sudeste 0 -- -- 35
2020-08-31 11:00:00 22.4 14 Sudeste 24 Sudeste 0 -- -- 35
2020-08-31 10:00:00 20.8 12 Sudeste 20 Sudeste 0 -- -- 36
2020-08-31 09:00:00 18.4 9 Sudeste 19 Sur 0 -- -- 34
2020-08-31 08:00:00 16.5 10 Sur 21 Sudeste 0 -- -- 33
2020-08-31 07:00:00 16.4 11 Sudeste 19 Sur 0 -- -- 34
2020-08-31 06:00:00 16.9 10 Sudeste 19 Sudeste 0 -- -- 34
2020-08-31 05:00:00 14.8 5 Sudeste 15 Sudeste 0 -- -- 39
2020-08-31 04:00:00 14 0 Calma 6 Norte 0 -- -- 39
2020-08-31 03:00:00 15.8 2 Nordeste 8 Nordeste 0 -- -- 34
2020-08-31 02:00:00 15.4 0 Calma 6 Nordeste 0 -- -- 36
2020-08-31 01:00:00 16.3 0 Calma 8 Nordeste 0 -- -- 36
2020-08-31 00:00:00 16.5 0 Calma 5 Norte 0 -- -- 35
2020-08-30 23:00:00 18.7 4 Norte 16 Norte 0 -- -- 30
2020-08-30 22:00:00 20.6 9 Norte 19 Nordeste 0 -- -- 27
2020-08-30 21:00:00 22.1 8 Norte 22 Norte 0 -- -- 27
2020-08-30 20:00:00 23.6 10 Nordeste 22 Norte 0 -- -- 24
2020-08-30 19:00:00 24.9 13 Norte 27 Nordeste 0 -- -- 22
2020-08-30 18:00:00 25.9 11 Noroeste 22 Noroeste 0 -- -- 20
2020-08-30 17:00:00 25.8 12 Noroeste 23 Noroeste 0 -- -- 21
2020-08-30 16:00:00 25.5 9 Norte 24 Noroeste 0 -- -- 22
2020-08-30 15:00:00 25.2 6 Norte 20 Noroeste 0 -- -- 25
2020-08-30 14:00:00 24.1 7 Norte 18 Nordeste 0 -- -- 26
2020-08-30 13:00:00 23.1 6 Noroeste 20 Norte 0 -- -- 28
2020-08-30 12:00:00 22.5 8 Nordeste 18 Este 0 -- -- 31
2020-08-30 11:00:00 20.3 5 Nordeste 11 Este 0 -- -- 38
2020-08-30 10:00:00 17.6 3 Nordeste 8 Este 0 -- -- 43
2020-08-30 09:00:00 14.7 3 Noroeste 7 Noroeste 0 -- -- 53
2020-08-30 08:00:00 11.8 3 Noroeste 7 Noroeste 0 -- -- 61
2020-08-30 07:00:00 12.4 4 Oeste 12 Noroeste 0 -- -- 58
2020-08-30 06:00:00 13.1 6 Noroeste 15 Noroeste 0 -- -- 56
2020-08-30 05:00:00 13.9 6 Noroeste 17 Noroeste 0 -- -- 53
2020-08-30 04:00:00 14.7 8 Noroeste 18 Oeste 0 -- -- 49
2020-08-30 03:00:00 15 8 Noroeste 12 Oeste 0 -- -- 48
2020-08-30 02:00:00 16 6 Noroeste 16 Noroeste 0 -- -- 44
2020-08-30 01:00:00 16.4 6 Noroeste 15 Noroeste 0 -- -- 41
2020-08-30 00:00:00 16.7 8 Noroeste 13 Noroeste 0 -- -- 40
2020-08-29 23:00:00 17.2 6 Noroeste 17 Norte 0 -- -- 39
2020-08-29 22:00:00 18.5 9 Norte 24 Norte 0 -- -- 36
2020-08-29 21:00:00 20.2 15 Norte 33 Noroeste 0 -- -- 32
2020-08-29 20:00:00 21.2 15 Norte 35 Norte 0 -- -- 30
2020-08-29 19:00:00 22.2 19 Norte 38 Norte 0 -- -- 28
2020-08-29 18:00:00 23 16 Noroeste 39 Norte 0 -- -- 28
2020-08-29 17:00:00 22.7 21 Norte 39 Noroeste 0 -- -- 27
2020-08-29 16:00:00 22.6 17 Noroeste 41 Norte 0 -- -- 30
2020-08-29 15:00:00 21.9 19 Norte 38 Noroeste 0 -- -- 35
2020-08-29 14:00:00 20.7 21 Norte 40 Noroeste 0 -- -- 38
2020-08-29 13:00:00 18.8 17 Norte 45 Noroeste 0 -- -- 43
2020-08-29 12:00:00 16.7 18 Noroeste 39 Noroeste 0 -- -- 49
2020-08-29 11:00:00 15.4 21 Noroeste 40 Noroeste 0 -- -- 52
2020-08-29 10:00:00 13.2 17 Noroeste 32 Noroeste 0 -- -- 62
2020-08-29 09:00:00 11.4 18 Noroeste 39 Noroeste 0 -- -- 71
2020-08-29 08:00:00 10.3 16 Noroeste 34 Noroeste 0 -- -- 80
2020-08-29 07:00:00 10.7 14 Noroeste 28 Noroeste 0 -- -- 79
2020-08-29 06:00:00 11.1 13 Noroeste 27 Noroeste 0 -- -- 78
2020-08-29 05:00:00 11.5 11 Noroeste 28 Noroeste 0 -- -- 76
2020-08-29 04:00:00 12.1 15 Noroeste 27 Noroeste 0 -- -- 73
2020-08-29 03:00:00 12.9 13 Noroeste 37 Noroeste 0 -- -- 66
2020-08-29 02:00:00 13.9 18 Noroeste 35 Oeste 0 -- -- 60
2020-08-29 01:00:00 15.2 19 Noroeste 37 Oeste 0 -- -- 56
2020-08-29 00:00:00 16.9 16 Noroeste 34 Noroeste 0 -- -- 44
2020-08-28 23:00:00 18.9 18 Noroeste 34 Noroeste 0 -- -- 36
2020-08-28 22:00:00 20.9 18 Noroeste 32 Noroeste 0 -- -- 31
2020-08-28 21:00:00 22.7 13 Noroeste 31 Noroeste 0 -- -- 26
2020-08-28 20:00:00 25 16 Noroeste 31 Oeste 0 -- -- 25
2020-08-28 19:00:00 26.9 18 Noroeste 35 Noroeste 0 -- -- 26
2020-08-28 18:00:00 28.6 14 Noroeste 36 Oeste 0 -- -- 32
2020-08-28 17:00:00 28.8 17 Oeste 39 Noroeste 0 -- -- 39
2020-08-28 16:00:00 28.5 18 Noroeste 36 Noroeste 0 -- -- 38
2020-08-28 15:00:00 27.9 18 Noroeste 35 Noroeste 0 -- -- 43
2020-08-28 14:00:00 25.5 16 Noroeste 32 Noroeste 0 -- -- 49
2020-08-28 13:00:00 25.1 19 Noroeste 35 Noroeste 0 -- -- 48
2020-08-28 12:00:00 23.3 18 Noroeste 32 Noroeste 0 -- -- 52
2020-08-28 11:00:00 21.7 14 Noroeste 28 Noroeste 0 -- -- 59
2020-08-28 10:00:00 20 13 Noroeste 22 Noroeste 0 -- -- 66
2020-08-28 09:00:00 19.1 13 Noroeste 24 Noroeste 0 -- -- 68
2020-08-28 08:00:00 16.6 10 Oeste 26 Oeste 0 -- -- 83
2020-08-28 07:00:00 16.3 11 Oeste 22 Oeste 0 -- -- 88
2020-08-28 06:00:00 17 13 Oeste 21 Oeste 0 -- -- 85
2020-08-28 05:00:00 17.1 13 Oeste 26 Sudoeste 0 -- -- 86
2020-08-28 04:00:00 18.3 15 Oeste 26 Oeste 0 -- -- 80
2020-08-28 03:00:00 19.3 17 Oeste 25 Oeste 0 -- -- 73
2020-08-28 02:00:00 20.3 14 Oeste 27 Oeste 0 -- -- 68
2020-08-28 01:00:00 21.9 16 Oeste 28 Oeste 0 -- -- 59
2020-08-28 00:00:00 23.5 15 Oeste 32 Oeste 0 -- -- 54
2020-08-27 23:00:00 25.8 15 Oeste 29 Oeste 0 -- -- 39
2020-08-27 22:00:00 27.4 15 Oeste 30 Oeste 0 -- -- 37
2020-08-27 21:00:00 29.3 14 Noroeste 30 Noroeste 0 -- -- 34
2020-08-27 20:00:00 30.9 13 Noroeste 28 Noroeste 0 -- -- 30
2020-08-27 19:00:00 32.1 14 Noroeste 27 Noroeste 0 -- -- 27
2020-08-27 18:00:00 33.4 11 Noroeste 30 Noroeste 0 -- -- 24
2020-08-27 17:00:00 34.3 13 Noroeste 34 Noroeste 0 -- -- 19
2020-08-27 16:00:00 34.5 12 Noroeste 30 Noroeste 0 -- -- 19
2020-08-27 15:00:00 34 9 Noroeste 31 Noroeste 0 -- -- 17
2020-08-27 14:00:00 33.4 15 Noroeste 31 Noroeste 0 -- -- 24
2020-08-27 13:00:00 33.6 7 Norte 16 Noroeste 0 -- -- 17
2020-08-27 12:00:00 31.8 5 Norte 16 Norte 0 -- -- 21
2020-08-27 11:00:00 31.1 5 Oeste 10 Sudoeste 0 -- -- 21
2020-08-27 10:00:00 29 5 Sudoeste 10 Sudoeste 0 -- -- 23
2020-08-27 09:00:00 25.4 8 Sudoeste 12 Sudoeste 0 -- -- 40
2020-08-27 08:00:00 21.9 7 Oeste 9 Oeste 0 -- -- 47
2020-08-27 07:00:00 22.5 7 Sudoeste 12 Oeste 0 -- -- 44
2020-08-27 06:00:00 23.1 9 Oeste 12 Oeste 0 -- -- 44
2020-08-27 05:00:00 22.3 8 Oeste 10 Oeste 0 -- -- 45
2020-08-27 04:00:00 22.8 6 Oeste 10 Oeste 0 -- -- 42
2020-08-27 03:00:00 23.4 8 Sudoeste 13 Noroeste 0 -- -- 35
2020-08-27 02:00:00 24.3 6 Oeste 11 Oeste 0 -- -- 35
2020-08-27 01:00:00 25.9 9 Oeste 17 Oeste 0 -- -- 29
2020-08-27 00:00:00 26.5 11 Oeste 18 Oeste 0 -- -- 28
2020-08-26 23:00:00 27.3 12 Oeste 20 Oeste 0 -- -- 25
2020-08-26 22:00:00 28.5 13 Oeste 21 Oeste 0 -- -- 22
2020-08-26 21:00:00 30.3 11 Oeste 27 Oeste 0 -- -- 18
2020-08-26 20:00:00 32.8 15 Noroeste 25 Noroeste 0 -- -- 21
2020-08-26 19:00:00 34.6 14 Noroeste 27 Noroeste 0 -- -- 23
2020-08-26 18:00:00 35.8 11 Noroeste 23 Noroeste 0 -- -- 22
2020-08-26 17:00:00 35.8 10 Norte 26 Noroeste 0 -- -- 21
2020-08-26 16:00:00 35.9 8 Noroeste 21 Sur 0 -- -- 21
2020-08-26 15:00:00 35.1 6 Norte 19 Norte 0 -- -- 20
2020-08-26 14:00:00 34.4 9 Noroeste 20 Oeste 0 -- -- 22
2020-08-26 13:00:00 33.8 10 Sudeste 22 Sudeste 0 -- -- 24
2020-08-26 12:00:00 32.5 6 Sur 13 Sur 0 -- -- 25
2020-08-26 11:00:00 31.4 8 Sudeste 14 Sudeste 0 -- -- 24
2020-08-26 10:00:00 29.2 3 Este 7 Este 0 -- -- 26
2020-08-26 09:00:00 24.5 0 Calma 5 Oeste 0 -- -- 31
2020-08-26 08:00:00 20.8 5 Oeste 9 Noroeste 0 -- -- 33
2020-08-26 07:00:00 21.2 5 Oeste 7 Oeste 0 -- -- 32
2020-08-26 06:00:00 21.9 6 Oeste 10 Oeste 0 -- -- 37
2020-08-26 05:00:00 23 7 Oeste 12 Oeste 0 -- -- 35
2020-08-26 04:00:00 23.8 10 Oeste 17 Sudoeste 0 -- -- 33
2020-08-26 03:00:00 23.5 10 Oeste 14 Oeste 0 -- -- 35
2020-08-26 02:00:00 24.3 8 Oeste 19 Oeste 0 -- -- 35
2020-08-26 01:00:00 25.9 9 Oeste 16 Oeste 0 -- -- 33
2020-08-26 00:00:00 27 12 Oeste 18 Oeste 0 -- -- 32
2020-08-25 23:00:00 27.3 10 Oeste 15 Oeste 0 -- -- 32
2020-08-25 22:00:00 28 5 Oeste 13 Sudoeste 0 -- -- 31
2020-08-25 21:00:00 31.2 6 Oeste 10 Sudoeste 0 -- -- 26
2020-08-25 20:00:00 33.8 7 Sur 16 Sudeste 0 -- -- 25
2020-08-25 19:00:00 35.1 6 Sudeste 20 Sudeste 0 -- -- 24
2020-08-25 18:00:00 35.7 8 Sudeste 19 Este 0 -- -- 23
2020-08-25 17:00:00 35.2 4 Norte 14 Norte 0 -- -- 23
2020-08-25 16:00:00 34.4 5 Nordeste 19 Nordeste 0 -- -- 24
2020-08-25 15:00:00 34.1 6 Sudoeste 20 Nordeste 0 -- -- 24
2020-08-25 14:00:00 33.5 5 Este 16 Este 0 -- -- 25
2020-08-25 13:00:00 32.1 6 Nordeste 15 Este 0 -- -- 27
2020-08-25 12:00:00 31.8 8 Este 15 Este 0 -- -- 28
2020-08-25 11:00:00 29.8 6 Sudeste 12 Sudeste 0 -- -- 34
2020-08-25 10:00:00 28.3 6 Sudeste 10 Sudeste 0 -- -- 36
2020-08-25 09:00:00 24.1 0 Calma 6 Sudoeste 0 -- -- 50
2020-08-25 08:00:00 19.6 5 Oeste 6 Oeste 0 -- -- 56
2020-08-25 07:00:00 19.8 4 Sudoeste 6 Sudoeste 0 -- -- 52
2020-08-25 06:00:00 20.5 4 Sudoeste 10 Sudoeste 0 -- -- 50
2020-08-25 05:00:00 21.8 6 Sudoeste 15 Sudoeste 0 -- -- 49
2020-08-25 04:00:00 23 11 Sudoeste 18 Sudoeste 0 -- -- 47
2020-08-25 03:00:00 23.5 8 Sudoeste 19 Sudoeste 0 -- -- 41
2020-08-25 02:00:00 24.3 12 Oeste 18 Oeste 0 -- -- 39
2020-08-25 01:00:00 25.2 11 Sudoeste 17 Sudoeste 0 -- -- 37
2020-08-25 00:00:00 25.5 9 Sudoeste 16 Oeste 0 -- -- 36
2020-08-24 23:00:00 26 11 Sudoeste 16 Sudoeste 0 -- -- 38
2020-08-24 22:00:00 27.4 12 Sudoeste 15 Sudoeste 0 -- -- 37
2020-08-24 21:00:00 29.8 9 Sudoeste 18 Sudoeste 0 -- -- 30
2020-08-24 20:00:00 32.1 8 Sur 21 Sur 0 -- -- 24
2020-08-24 19:00:00 33.8 11 Sudeste 21 Sudeste 0 -- -- 20
2020-08-24 18:00:00 34.6 8 Sudeste 19 Sudeste 0 -- -- 18
2020-08-24 17:00:00 34.3 6 Sudeste 20 Sudeste 0 -- -- 19
2020-08-24 16:00:00 33.7 9 Este 23 Este 0 -- -- 19
2020-08-24 15:00:00 33.2 11 Este 21 Sudeste 0 -- -- 19
2020-08-24 14:00:00 32.1 10 Sudeste 25 Sudeste 0 -- -- 21
2020-08-24 13:00:00 31.4 14 Sudeste 24 Sudeste 0 -- -- 23
2020-08-24 12:00:00 30.2 13 Sudeste 25 Sudeste 0 -- -- 24
2020-08-24 11:00:00 28.9 12 Sudeste 19 Sudeste 0 -- -- 24
2020-08-24 10:00:00 27.7 7 Sudeste 14 Sudeste 0 -- -- 28
2020-08-24 09:00:00 23.9 4 Sudeste 8 Sur 0 -- -- 31
2020-08-24 08:00:00 19.1 4 Sudoeste 6 Sudoeste 0 -- -- 34
2020-08-24 07:00:00 19.2 5 Oeste 8 Oeste 0 -- -- 37
2020-08-24 06:00:00 19.5 6 Oeste 10 Oeste 0 -- -- 41
2020-08-24 05:00:00 20.3 5 Oeste 12 Oeste 0 -- -- 44
2020-08-24 04:00:00 21.2 9 Oeste 15 Oeste 0 -- -- 48
2020-08-24 03:00:00 21.4 13 Oeste 19 Oeste 0 -- -- 48
2020-08-24 02:00:00 21.5 10 Sudoeste 18 Oeste 0 -- -- 45
2020-08-24 01:00:00 22.7 13 Oeste 32 Noroeste 0 -- -- 30
2020-08-24 00:00:00 24.3 9 Oeste 14 Oeste 0 -- -- 25
2020-08-23 23:00:00 23.8 8 Oeste 10 Oeste 0 -- -- 25
2020-08-23 22:00:00 24.6 8 Oeste 12 Norte 0 -- -- 25
2020-08-23 21:00:00 27.6 7 Norte 22 Noroeste 0 -- -- 22
2020-08-23 20:00:00 29.2 12 Norte 22 Norte 0 -- -- 22
2020-08-23 19:00:00 30.4 8 Norte 26 Norte 0 -- -- 19
2020-08-23 18:00:00 30.6 13 Noroeste 24 Noroeste 0 -- -- 18
2020-08-23 17:00:00 30.9 10 Norte 31 Noroeste 0 -- -- 19
2020-08-23 16:00:00 31.1 12 Norte 26 Noroeste 0 -- -- 19
2020-08-23 15:00:00 30.6 9 Norte 26 Nordeste 0 -- -- 20
2020-08-23 14:00:00 29.9 12 Noroeste 21 Noroeste 0 -- -- 19
2020-08-23 13:00:00 28.6 10 Noroeste 21 Noroeste 0 -- -- 21
2020-08-23 12:00:00 27.9 8 Norte 16 Norte 0 -- -- 21
2020-08-23 11:00:00 27.2 6 Norte 12 Norte 0 -- -- 23
2020-08-23 10:00:00 25.4 0 Calma 11 Noroeste 0 -- -- 25
2020-08-23 09:00:00 22.1 4 Noroeste 8 Noroeste 0 -- -- 29
2020-08-23 08:00:00 18 6 Oeste 14 Oeste 0 -- -- 39
2020-08-23 07:00:00 17.9 9 Oeste 15 Oeste 0 -- -- 43
2020-08-23 06:00:00 18.5 10 Oeste 15 Noroeste 0 -- -- 40
2020-08-23 05:00:00 19.2 9 Oeste 14 Noroeste 0 -- -- 38
2020-08-23 04:00:00 19.9 10 Oeste 14 Oeste 0 -- -- 36
2020-08-23 03:00:00 20.8 11 Oeste 22 Oeste 0 -- -- 38
2020-08-23 02:00:00 21.6 13 Oeste 20 Oeste 0 -- -- 35
2020-08-23 01:00:00 22.6 12 Oeste 20 Noroeste 0 -- -- 30
2020-08-23 00:00:00 22.5 9 Oeste 13 Oeste 0 -- -- 30